< < Back
Terminal Aerodrome Forecast


Current Version              Previous Versions:   1  2  3  4  5  6  7  8  9  

Terminal Aerodrome Forecast

375
FTUS44 KBMX 230520
TAFBHM
TAF
KBHM 230520Z 2306/2406 06003KT P6SM SKC
     FM231500 12009KT P6SM SCT250=

Latest METAR

805
SAUS70 KWBC 231300 RRO
MTRBHM
METAR KBHM 231253Z 11005KT 10SM BKN200 19/10 A3034 RMK AO2 SLP267
T01890100


USA.gov is the U.S. government's official web portal to all federal, state and local government web resources and services.